PA001 KJAC-KASE
Flight info
| Callsign | PA001 |
|---|---|
| Flight time | 0h 55m |
| Altitude | 31000 |
| Route | ALPIN5 BPI DBL |
| Aircraft | B722/M-SDFGHRWY/C |
Departure
| Time | 2026-04-24 23:15 |
|---|---|
| Airport | Jackson Hole Airport (KJAC) |
Arrival
| Time | 2026-04-25 00:10 |
|---|---|
| Airport | Aspen-Pitkin County Airport (Sardy Field) (KASE) |
| Time | Latitude | Longitude | Altitude | Speed | Heading |
|---|---|---|---|---|---|
| 2026-04-24 22:36 | 43.60340 | -110.73726 | 6423 ft | 0 kts | 109° |
| 2026-04-24 23:01 | 43.60344 | -110.73744 | 6423 ft | 4 kts | 102° |
| 2026-04-24 23:02 | 43.60344 | -110.73779 | 6422 ft | 4 kts | 76° |
| 2026-04-24 23:02 | 43.60332 | -110.73808 | 6419 ft | 4 kts | 38° |
| 2026-04-24 23:02 | 43.60317 | -110.73817 | 6421 ft | 1 kts | 19° |
| 2026-04-24 23:02 | 43.60315 | -110.73818 | 6422 ft | 0 kts | 19° |
| 2026-04-24 23:07 | 43.60316 | -110.73818 | 6421 ft | 0 kts | 25° |
| 2026-04-24 23:07 | 43.60317 | -110.73817 | 6421 ft | 0 kts | 38° |
| 2026-04-24 23:07 | 43.60324 | -110.73810 | 6419 ft | 1 kts | 37° |
| 2026-04-24 23:08 | 43.60325 | -110.73806 | 6420 ft | 1 kts | 76° |
| 2026-04-24 23:08 | 43.60316 | -110.73789 | 6425 ft | 5 kts | 157° |
| 2026-04-24 23:08 | 43.60261 | -110.73818 | 6423 ft | 12 kts | 205° |
| 2026-04-24 23:08 | 43.60181 | -110.73871 | 6423 ft | 14 kts | 205° |
| 2026-04-24 23:09 | 43.60086 | -110.73931 | 6420 ft | 16 kts | 200° |
| 2026-04-24 23:09 | 43.59973 | -110.73985 | 6424 ft | 17 kts | 198° |
| 2026-04-24 23:09 | 43.59923 | -110.74012 | 6424 ft | 3 kts | 207° |
| 2026-04-24 23:09 | 43.59916 | -110.74019 | 6424 ft | 0 kts | 229° |
| 2026-04-24 23:13 | 43.59915 | -110.74022 | 6424 ft | 2 kts | 234° |
| 2026-04-24 23:13 | 43.59921 | -110.74114 | 6425 ft | 15 kts | 302° |
| 2026-04-24 23:13 | 43.60006 | -110.74129 | 6424 ft | 13 kts | 19° |
| 2026-04-24 23:14 | 43.60208 | -110.74030 | 6421 ft | 59 kts | 19° |
| 2026-04-24 23:14 | 43.60786 | -110.73747 | 6429 ft | 114 kts | 19° |
| 2026-04-24 23:14 | 43.61685 | -110.73296 | 6460 ft | 152 kts | 22° |
| 2026-04-24 23:14 | 43.62713 | -110.72839 | 6818 ft | 166 kts | 19° |
| 2026-04-24 23:15 | 43.63862 | -110.72264 | 7283 ft | 179 kts | 19° |
| 2026-04-24 23:15 | 43.65052 | -110.71628 | 7699 ft | 192 kts | 20° |
| 2026-04-24 23:15 | 43.66328 | -110.70962 | 8123 ft | 196 kts | 21° |
| 2026-04-24 23:15 | 43.67536 | -110.70000 | 8629 ft | 207 kts | 41° |
| 2026-04-24 23:16 | 43.68599 | -110.68588 | 9393 ft | 220 kts | 43° |
| 2026-04-24 23:16 | 43.69750 | -110.66918 | 9878 ft | 254 kts | 45° |
| 2026-04-24 23:16 | 43.70977 | -110.65350 | 11344 ft | 221 kts | 32° |
| 2026-04-24 23:16 | 43.72230 | -110.64230 | 12411 ft | 222 kts | 23° |
| 2026-04-24 23:17 | 43.73636 | -110.63073 | 12758 ft | 247 kts | 26° |
| 2026-04-24 23:17 | 43.75170 | -110.61886 | 13360 ft | 268 kts | 24° |
| 2026-04-24 23:17 | 43.76964 | -110.60665 | 13464 ft | 306 kts | 21° |
| 2026-04-24 23:17 | 43.78956 | -110.59344 | 13697 ft | 313 kts | 23° |
| 2026-04-24 23:18 | 43.80903 | -110.57972 | 13059 ft | 319 kts | 24° |
| 2026-04-24 23:18 | 43.82859 | -110.56508 | 12477 ft | 318 kts | 26° |
| 2026-04-24 23:18 | 43.84715 | -110.55027 | 12745 ft | 288 kts | 28° |
| 2026-04-24 23:18 | 43.86446 | -110.53565 | 13549 ft | 298 kts | 27° |
| 2026-04-24 23:19 | 43.88238 | -110.52141 | 14652 ft | 294 kts | 27° |
| 2026-04-24 23:19 | 43.89986 | -110.50747 | 15890 ft | 285 kts | 27° |
| 2026-04-24 23:19 | 43.91674 | -110.49376 | 16965 ft | 285 kts | 28° |
| 2026-04-24 23:19 | 43.93406 | -110.47950 | 17658 ft | 294 kts | 28° |
| 2026-04-24 23:20 | 43.95163 | -110.46426 | 18225 ft | 311 kts | 34° |
| 2026-04-24 23:20 | 43.96694 | -110.44189 | 18587 ft | 332 kts | 57° |
| 2026-04-24 23:20 | 43.97595 | -110.41180 | 18974 ft | 345 kts | 80° |
| 2026-04-24 23:20 | 43.97656 | -110.37862 | 19353 ft | 344 kts | 102° |
| 2026-04-24 23:21 | 43.96862 | -110.34748 | 19729 ft | 341 kts | 124° |
| 2026-04-24 23:21 | 43.95352 | -110.32261 | 20107 ft | 337 kts | 146° |
| 2026-04-24 23:21 | 43.93348 | -110.30677 | 20456 ft | 330 kts | 167° |
| 2026-04-24 23:21 | 43.91142 | -110.30144 | 20834 ft | 316 kts | 188° |
| 2026-04-24 23:22 | 43.88997 | -110.30565 | 21223 ft | 308 kts | 201° |
| 2026-04-24 23:22 | 43.86954 | -110.31461 | 21391 ft | 308 kts | 208° |
| 2026-04-24 23:22 | 43.85001 | -110.32537 | 21521 ft | 305 kts | 208° |
| 2026-04-24 23:22 | 43.82923 | -110.33318 | 21671 ft | 316 kts | 193° |
| 2026-04-24 23:23 | 43.80686 | -110.33302 | 21843 ft | 326 kts | 184° |
| 2026-04-24 23:23 | 43.78422 | -110.32859 | 22038 ft | 331 kts | 178° |
| 2026-04-24 23:23 | 43.76145 | -110.32288 | 22266 ft | 332 kts | 180° |
| 2026-04-24 23:23 | 43.73855 | -110.31856 | 22469 ft | 331 kts | 183° |
| 2026-04-24 23:24 | 43.71587 | -110.31500 | 22732 ft | 328 kts | 184° |
| 2026-04-24 23:24 | 43.69313 | -110.31092 | 22964 ft | 331 kts | 184° |
| 2026-04-24 23:24 | 43.67017 | -110.30643 | 23280 ft | 336 kts | 184° |
| 2026-04-24 23:24 | 43.64737 | -110.30214 | 24035 ft | 333 kts | 185° |
| 2026-04-24 23:25 | 43.62410 | -110.29797 | 24549 ft | 339 kts | 185° |
| 2026-04-24 23:25 | 43.60056 | -110.29370 | 25071 ft | 343 kts | 184° |
| 2026-04-24 23:25 | 43.57677 | -110.28931 | 25618 ft | 347 kts | 184° |
| 2026-04-24 23:25 | 43.55263 | -110.28484 | 26174 ft | 351 kts | 184° |
| 2026-04-24 23:26 | 43.52829 | -110.28040 | 26718 ft | 353 kts | 185° |
| 2026-04-24 23:26 | 43.50371 | -110.27593 | 27234 ft | 357 kts | 185° |
| 2026-04-24 23:26 | 43.47885 | -110.27140 | 27695 ft | 362 kts | 185° |
| 2026-04-24 23:26 | 43.45413 | -110.26684 | 28185 ft | 365 kts | 185° |
| 2026-04-24 23:27 | 43.42883 | -110.26221 | 28661 ft | 369 kts | 185° |
| 2026-04-24 23:27 | 43.40323 | -110.25755 | 29146 ft | 372 kts | 184° |
| 2026-04-24 23:27 | 43.37744 | -110.25287 | 29563 ft | 376 kts | 184° |
| 2026-04-24 23:27 | 43.35139 | -110.24810 | 30048 ft | 377 kts | 185° |
| 2026-04-24 23:28 | 43.32529 | -110.24332 | 30421 ft | 381 kts | 184° |
| 2026-04-24 23:28 | 43.29878 | -110.23858 | 30678 ft | 387 kts | 184° |
| 2026-04-24 23:28 | 43.27202 | -110.23370 | 31082 ft | 389 kts | 184° |
| 2026-04-24 23:28 | 43.24498 | -110.22875 | 31437 ft | 393 kts | 183° |
| 2026-04-24 23:29 | 43.21772 | -110.22381 | 31791 ft | 396 kts | 183° |
| 2026-04-24 23:29 | 43.19028 | -110.21886 | 32159 ft | 400 kts | 182° |
| 2026-04-24 23:29 | 43.16293 | -110.21390 | 32474 ft | 402 kts | 183° |
| 2026-04-24 23:29 | 43.13506 | -110.20882 | 32835 ft | 405 kts | 182° |
| 2026-04-24 23:30 | 43.10688 | -110.20379 | 32949 ft | 414 kts | 182° |
| 2026-04-24 23:30 | 43.04966 | -110.19335 | 32923 ft | 414 kts | 182° |
| 2026-04-24 23:31 | 42.99278 | -110.18313 | 32919 ft | 410 kts | 182° |
| 2026-04-24 23:31 | 42.93635 | -110.17299 | 32911 ft | 407 kts | 182° |
| 2026-04-24 23:31 | 42.90926 | -110.16797 | 32901 ft | 388 kts | 182° |
| 2026-04-24 23:32 | 42.88269 | -110.16320 | 32894 ft | 384 kts | 183° |
| 2026-04-24 23:32 | 42.82974 | -110.15396 | 32895 ft | 383 kts | 183° |
| 2026-04-24 23:33 | 42.77705 | -110.14437 | 32894 ft | 380 kts | 184° |
| 2026-04-24 23:33 | 42.72371 | -110.13510 | 32912 ft | 395 kts | 185° |
| 2026-04-24 23:34 | 42.66829 | -110.12504 | 32907 ft | 400 kts | 184° |
| 2026-04-24 23:34 | 42.61193 | -110.11507 | 32892 ft | 418 kts | 182° |
| 2026-04-24 23:34 | 42.58330 | -110.10446 | 32903 ft | 446 kts | 168° |
| 2026-04-24 23:35 | 42.55528 | -110.08389 | 32934 ft | 468 kts | 156° |
| 2026-04-24 23:35 | 42.52838 | -110.05759 | 32922 ft | 485 kts | 150° |
| 2026-04-24 23:35 | 42.50218 | -110.02768 | 32926 ft | 497 kts | 147° |
| 2026-04-24 23:36 | 42.44893 | -109.96578 | 32840 ft | 509 kts | 151° |
| 2026-04-24 23:36 | 42.39219 | -109.90729 | 32853 ft | 517 kts | 149° |
| 2026-04-24 23:37 | 42.33673 | -109.84527 | 32826 ft | 515 kts | 150° |
| 2026-04-24 23:37 | 42.25383 | -109.75692 | 32773 ft | 496 kts | 150° |
| 2026-04-24 23:38 | 42.19994 | -109.69887 | 32780 ft | 499 kts | 151° |
| 2026-04-24 23:38 | 42.14549 | -109.64069 | 32774 ft | 500 kts | 150° |
| 2026-04-24 23:39 | 42.09104 | -109.58231 | 32772 ft | 499 kts | 150° |
| 2026-04-24 23:39 | 42.03651 | -109.52428 | 32768 ft | 499 kts | 150° |
| 2026-04-24 23:40 | 41.98238 | -109.46656 | 32760 ft | 499 kts | 150° |
| 2026-04-24 23:40 | 41.92811 | -109.40899 | 32765 ft | 495 kts | 150° |
| 2026-04-24 23:41 | 41.87395 | -109.35156 | 32755 ft | 495 kts | 150° |
| 2026-04-24 23:41 | 41.81981 | -109.29437 | 32768 ft | 495 kts | 150° |
| 2026-04-24 23:42 | 41.76620 | -109.23756 | 32786 ft | 491 kts | 150° |
| 2026-04-24 23:42 | 41.71244 | -109.18138 | 32794 ft | 491 kts | 150° |
| 2026-04-24 23:43 | 41.65860 | -109.12459 | 32812 ft | 491 kts | 150° |
| 2026-04-24 23:43 | 41.60465 | -109.06820 | 32808 ft | 491 kts | 150° |
| 2026-04-24 23:44 | 41.55125 | -109.01222 | 32815 ft | 491 kts | 150° |
| 2026-04-24 23:44 | 41.49734 | -108.95603 | 32802 ft | 491 kts | 150° |
| 2026-04-24 23:45 | 41.44353 | -108.90002 | 32713 ft | 491 kts | 150° |
| 2026-04-24 23:45 | 41.38945 | -108.84391 | 32721 ft | 493 kts | 150° |
| 2026-04-24 23:46 | 41.33546 | -108.78773 | 32719 ft | 492 kts | 151° |
| 2026-04-24 23:46 | 41.28146 | -108.73205 | 32712 ft | 494 kts | 151° |
| 2026-04-24 23:47 | 41.22725 | -108.67594 | 32707 ft | 493 kts | 151° |
| 2026-04-24 23:47 | 41.17292 | -108.62009 | 32708 ft | 493 kts | 151° |
| 2026-04-24 23:48 | 41.11866 | -108.56424 | 32709 ft | 493 kts | 151° |
| 2026-04-24 23:48 | 41.06425 | -108.50852 | 32695 ft | 495 kts | 151° |
| 2026-04-24 23:49 | 41.00977 | -108.45268 | 32685 ft | 495 kts | 151° |
| 2026-04-24 23:49 | 40.95517 | -108.39699 | 32691 ft | 496 kts | 151° |
| 2026-04-24 23:50 | 40.90087 | -108.34160 | 32685 ft | 494 kts | 151° |
| 2026-04-24 23:50 | 40.84621 | -108.28607 | 32672 ft | 495 kts | 151° |
| 2026-04-24 23:51 | 40.79166 | -108.23071 | 32672 ft | 495 kts | 151° |
| 2026-04-24 23:51 | 40.73741 | -108.17573 | 32627 ft | 494 kts | 151° |
| 2026-04-24 23:52 | 40.68255 | -108.12043 | 32703 ft | 501 kts | 151° |
| 2026-04-24 23:52 | 40.62733 | -108.06455 | 32696 ft | 499 kts | 151° |
| 2026-04-24 23:53 | 40.57209 | -108.00915 | 32710 ft | 499 kts | 152° |
| 2026-04-24 23:53 | 40.51747 | -107.95420 | 32702 ft | 496 kts | 151° |
| 2026-04-24 23:54 | 40.46255 | -107.89922 | 32700 ft | 496 kts | 151° |
| 2026-04-24 23:54 | 40.40777 | -107.84415 | 32620 ft | 494 kts | 150° |
| 2026-04-24 23:55 | 40.38043 | -107.81671 | 32155 ft | 494 kts | 152° |
| 2026-04-24 23:55 | 40.35273 | -107.78971 | 31603 ft | 499 kts | 151° |
| 2026-04-24 23:55 | 40.32484 | -107.76217 | 31035 ft | 504 kts | 150° |
| 2026-04-24 23:55 | 40.29720 | -107.73432 | 30503 ft | 507 kts | 150° |
| 2026-04-24 23:56 | 40.26906 | -107.70604 | 29957 ft | 510 kts | 150° |
| 2026-04-24 23:56 | 40.24068 | -107.67809 | 29340 ft | 509 kts | 150° |
| 2026-04-24 23:56 | 40.22212 | -107.65977 | 28914 ft | 497 kts | 150° |
| 2026-04-24 23:56 | 40.19533 | -107.63305 | 28221 ft | 474 kts | 150° |
| 2026-04-24 23:57 | 40.16105 | -107.59907 | 27371 ft | 461 kts | 150° |
| 2026-04-24 23:57 | 40.13562 | -107.57408 | 26770 ft | 454 kts | 150° |
| 2026-04-24 23:57 | 40.11059 | -107.54941 | 26177 ft | 448 kts | 149° |
| 2026-04-24 23:57 | 40.09384 | -107.53281 | 25787 ft | 444 kts | 149° |
| 2026-04-24 23:58 | 40.06960 | -107.50883 | 25224 ft | 439 kts | 149° |
| 2026-04-24 23:58 | 40.04531 | -107.48501 | 24678 ft | 434 kts | 149° |
| 2026-04-24 23:58 | 40.02134 | -107.46144 | 24162 ft | 429 kts | 148° |
| 2026-04-24 23:58 | 39.99763 | -107.43803 | 23637 ft | 424 kts | 148° |
| 2026-04-24 23:59 | 39.97419 | -107.41499 | 23100 ft | 420 kts | 148° |
| 2026-04-24 23:59 | 39.95097 | -107.39226 | 22491 ft | 416 kts | 149° |
| 2026-04-24 23:59 | 39.92792 | -107.36963 | 21929 ft | 413 kts | 149° |
| 2026-04-24 23:59 | 39.90515 | -107.34718 | 21361 ft | 408 kts | 149° |
| 2026-04-25 00:00 | 39.88258 | -107.32513 | 20823 ft | 401 kts | 149° |
| 2026-04-25 00:00 | 39.86023 | -107.30344 | 20291 ft | 399 kts | 149° |
| 2026-04-25 00:00 | 39.83841 | -107.28197 | 19773 ft | 396 kts | 149° |
| 2026-04-25 00:00 | 39.81646 | -107.26045 | 19245 ft | 391 kts | 149° |
| 2026-04-25 00:01 | 39.79480 | -107.23938 | 18754 ft | 386 kts | 149° |
| 2026-04-25 00:01 | 39.77335 | -107.21848 | 18245 ft | 382 kts | 149° |
| 2026-04-25 00:01 | 39.75218 | -107.19781 | 17730 ft | 379 kts | 149° |
| 2026-04-25 00:01 | 39.73110 | -107.17728 | 17167 ft | 377 kts | 149° |
| 2026-04-25 00:02 | 39.71019 | -107.15694 | 16665 ft | 373 kts | 149° |
| 2026-04-25 00:02 | 39.68947 | -107.13680 | 16185 ft | 371 kts | 149° |
| 2026-04-25 00:02 | 39.66949 | -107.11741 | 15728 ft | 369 kts | 149° |
| 2026-04-25 00:02 | 39.64898 | -107.09749 | 15275 ft | 367 kts | 149° |
| 2026-04-25 00:03 | 39.62885 | -107.07800 | 14805 ft | 361 kts | 148° |
| 2026-04-25 00:03 | 39.60905 | -107.05873 | 14376 ft | 351 kts | 148° |
| 2026-04-25 00:03 | 39.58998 | -107.04019 | 13970 ft | 331 kts | 148° |
| 2026-04-25 00:03 | 39.57205 | -107.02283 | 13545 ft | 317 kts | 149° |
| 2026-04-25 00:04 | 39.55442 | -107.00581 | 13142 ft | 314 kts | 148° |
| 2026-04-25 00:04 | 39.53700 | -106.98888 | 12904 ft | 309 kts | 150° |
| 2026-04-25 00:04 | 39.51994 | -106.97269 | 12780 ft | 295 kts | 149° |
| 2026-04-25 00:04 | 39.50387 | -106.95709 | 12653 ft | 282 kts | 149° |
| 2026-04-25 00:05 | 39.48873 | -106.94195 | 12567 ft | 268 kts | 150° |
| 2026-04-25 00:05 | 39.47405 | -106.92817 | 12496 ft | 255 kts | 152° |
| 2026-04-25 00:05 | 39.45942 | -106.91506 | 12401 ft | 255 kts | 151° |
| 2026-04-25 00:05 | 39.44495 | -106.90168 | 12236 ft | 251 kts | 157° |
| 2026-04-25 00:06 | 39.42916 | -106.89370 | 11970 ft | 245 kts | 175° |
| 2026-04-25 00:06 | 39.41273 | -106.89086 | 11928 ft | 236 kts | 184° |
| 2026-04-25 00:06 | 39.39641 | -106.89006 | 12004 ft | 233 kts | 184° |
| 2026-04-25 00:06 | 39.38024 | -106.88876 | 12037 ft | 236 kts | 182° |
| 2026-04-25 00:07 | 39.36398 | -106.88675 | 11755 ft | 231 kts | 181° |
| 2026-04-25 00:07 | 39.34817 | -106.88495 | 11456 ft | 220 kts | 182° |
| 2026-04-25 00:07 | 39.33286 | -106.88356 | 11345 ft | 221 kts | 184° |
| 2026-04-25 00:07 | 39.31744 | -106.88322 | 10913 ft | 223 kts | 186° |
| 2026-04-25 00:08 | 39.30195 | -106.88342 | 10498 ft | 217 kts | 189° |
| 2026-04-25 00:08 | 39.28750 | -106.88426 | 10097 ft | 198 kts | 190° |
| 2026-04-25 00:08 | 39.27431 | -106.88593 | 9590 ft | 180 kts | 192° |
| 2026-04-25 00:08 | 39.26247 | -106.88629 | 9172 ft | 167 kts | 185° |
| 2026-04-25 00:09 | 39.25122 | -106.88266 | 8684 ft | 165 kts | 163° |
| 2026-04-25 00:09 | 39.24082 | -106.87696 | 8155 ft | 163 kts | 166° |
| 2026-04-25 00:09 | 39.23012 | -106.87208 | 7879 ft | 160 kts | 161° |
| 2026-04-25 00:09 | 39.22080 | -106.86777 | 7822 ft | 123 kts | 159° |
| 2026-04-25 00:10 | 39.21379 | -106.86441 | 7826 ft | 94 kts | 160° |
| 2026-04-25 00:10 | 39.20965 | -106.86247 | 7824 ft | 33 kts | 171° |
| 2026-04-25 00:10 | 39.20887 | -106.86206 | 7824 ft | 2 kts | 52° |
| 2026-04-25 00:10 | 39.20895 | -106.86202 | 7824 ft | 3 kts | 9° |
| 2026-04-25 00:11 | 39.20905 | -106.86202 | 7824 ft | 3 kts | 344° |
| 2026-04-25 00:11 | 39.20977 | -106.86244 | 7824 ft | 24 kts | 334° |
| 2026-04-25 00:11 | 39.21169 | -106.86340 | 7821 ft | 31 kts | 340° |
| 2026-04-25 00:11 | 39.21372 | -106.86438 | 7825 ft | 31 kts | 338° |
| 2026-04-25 00:12 | 39.21569 | -106.86536 | 7827 ft | 30 kts | 339° |
| 2026-04-25 00:12 | 39.21767 | -106.86631 | 7822 ft | 30 kts | 343° |
| 2026-04-25 00:12 | 39.21920 | -106.86693 | 7822 ft | 23 kts | 340° |
| 2026-04-25 00:12 | 39.21993 | -106.86714 | 7824 ft | 8 kts | 13° |
| 2026-04-25 00:13 | 39.22030 | -106.86670 | 7821 ft | 8 kts | 49° |
| 2026-04-25 00:13 | 39.22076 | -106.86653 | 7824 ft | 8 kts | 347° |
| 2026-04-25 00:13 | 39.22136 | -106.86678 | 7824 ft | 12 kts | 340° |
| 2026-04-25 00:13 | 39.22221 | -106.86718 | 7823 ft | 0 kts | 341° |
| 2026-04-25 00:14 | 39.22227 | -106.86719 | 7818 ft | 0 kts | 9° |
| 2026-04-25 00:14 | 39.22240 | -106.86698 | 7823 ft | 6 kts | 64° |